sensor_id;sensor_type;location;lat;lon;timestamp;P1;durP1;ratioP1;P2;durP2;ratioP2
7179;SDS011;3631;42.152;24.756;2022-08-18T00:00:08;9.20;;;6.72;;
7179;SDS011;3631;42.152;24.756;2022-08-18T00:02:37;7.45;;;6.07;;
7179;SDS011;3631;42.152;24.756;2022-08-18T00:05:06;7.28;;;6.78;;
7179;SDS011;3631;42.152;24.756;2022-08-18T00:07:35;8.05;;;6.28;;
7179;SDS011;3631;42.152;24.756;2022-08-18T00:10:03;7.15;;;6.47;;
7179;SDS011;3631;42.152;24.756;2022-08-18T00:12:33;7.35;;;6.78;;
7179;SDS011;3631;42.152;24.756;2022-08-18T00:15:02;8.90;;;6.97;;
7179;SDS011;3631;42.152;24.756;2022-08-18T00:17:30;7.35;;;6.68;;
7179;SDS011;3631;42.152;24.756;2022-08-18T00:19:58;7.40;;;6.53;;
7179;SDS011;3631;42.152;24.756;2022-08-18T00:22:25;6.15;;;5.78;;
7179;SDS011;3631;42.152;24.756;2022-08-18T00:24:54;10.60;;;7.35;;
7179;SDS011;3631;42.152;24.756;2022-08-18T00:27:23;7.55;;;7.00;;
7179;SDS011;3631;42.152;24.756;2022-08-18T00:29:53;7.13;;;6.50;;
7179;SDS011;3631;42.152;24.756;2022-08-18T00:32:22;7.25;;;6.65;;
7179;SDS011;3631;42.152;24.756;2022-08-18T00:34:50;7.20;;;6.50;;
7179;SDS011;3631;42.152;24.756;2022-08-18T00:37:18;8.18;;;7.10;;
7179;SDS011;3631;42.152;24.756;2022-08-18T00:39:46;7.03;;;6.45;;
7179;SDS011;3631;42.152;24.756;2022-08-18T00:42:18;8.32;;;6.78;;
7179;SDS011;3631;42.152;24.756;2022-08-18T00:44:46;6.72;;;6.25;;
7179;SDS011;3631;42.152;24.756;2022-08-18T00:47:13;8.07;;;6.75;;
7179;SDS011;3631;42.152;24.756;2022-08-18T00:49:40;7.10;;;6.68;;
7179;SDS011;3631;42.152;24.756;2022-08-18T00:52:10;7.60;;;6.75;;
7179;SDS011;3631;42.152;24.756;2022-08-18T00:54:40;7.10;;;6.72;;
7179;SDS011;3631;42.152;24.756;2022-08-18T00:57:09;6.90;;;6.45;;
7179;SDS011;3631;42.152;24.756;2022-08-18T00:59:39;7.28;;;6.68;;
7179;SDS011;3631;42.152;24.756;2022-08-18T01:02:10;7.60;;;7.00;;
7179;SDS011;3631;42.152;24.756;2022-08-18T01:04:42;6.65;;;6.10;;
7179;SDS011;3631;42.152;24.756;2022-08-18T01:07:15;7.35;;;6.75;;
7179;SDS011;3631;42.152;24.756;2022-08-18T01:09:45;6.82;;;5.85;;
7179;SDS011;3631;42.152;24.756;2022-08-18T01:12:13;6.47;;;6.05;;
7179;SDS011;3631;42.152;24.756;2022-08-18T01:14:41;7.53;;;6.50;;
7179;SDS011;3631;42.152;24.756;2022-08-18T01:17:08;7.63;;;6.95;;
7179;SDS011;3631;42.152;24.756;2022-08-18T01:19:52;10.00;;;6.95;;
7179;SDS011;3631;42.152;24.756;2022-08-18T01:22:37;7.43;;;6.38;;
7179;SDS011;3631;42.152;24.756;2022-08-18T01:25:13;7.43;;;6.70;;
7179;SDS011;3631;42.152;24.756;2022-08-18T01:27:58;7.85;;;6.63;;
7179;SDS011;3631;42.152;24.756;2022-08-18T01:30:27;10.88;;;7.18;;
7179;SDS011;3631;42.152;24.756;2022-08-18T01:32:55;7.28;;;6.70;;
7179;SDS011;3631;42.152;24.756;2022-08-18T01:35:23;9.57;;;6.68;;
7179;SDS011;3631;42.152;24.756;2022-08-18T01:37:52;7.43;;;6.85;;
7179;SDS011;3631;42.152;24.756;2022-08-18T01:40:21;8.73;;;7.13;;
7179;SDS011;3631;42.152;24.756;2022-08-18T01:42:49;7.35;;;6.68;;
7179;SDS011;3631;42.152;24.756;2022-08-18T01:45:16;6.80;;;6.30;;
7179;SDS011;3631;42.152;24.756;2022-08-18T01:47:44;7.45;;;6.80;;
7179;SDS011;3631;42.152;24.756;2022-08-18T01:50:11;7.60;;;6.80;;
7179;SDS011;3631;42.152;24.756;2022-08-18T01:52:39;7.35;;;6.72;;
7179;SDS011;3631;42.152;24.756;2022-08-18T01:55:06;9.88;;;7.38;;
7179;SDS011;3631;42.152;24.756;2022-08-18T01:57:36;7.15;;;6.63;;
7179;SDS011;3631;42.152;24.756;2022-08-18T02:00:09;7.13;;;6.63;;
7179;SDS011;3631;42.152;24.756;2022-08-18T02:02:37;7.63;;;6.95;;
7179;SDS011;3631;42.152;24.756;2022-08-18T02:05:07;8.35;;;6.63;;
7179;SDS011;3631;42.152;24.756;2022-08-18T02:07:37;7.38;;;6.88;;
7179;SDS011;3631;42.152;24.756;2022-08-18T02:10:05;7.60;;;6.85;;
7179;SDS011;3631;42.152;24.756;2022-08-18T02:12:33;8.60;;;6.53;;
7179;SDS011;3631;42.152;24.756;2022-08-18T02:15:02;7.47;;;6.75;;
7179;SDS011;3631;42.152;24.756;2022-08-18T02:17:32;12.43;;;7.05;;
7179;SDS011;3631;42.152;24.756;2022-08-18T02:20:03;6.90;;;6.40;;
7179;SDS011;3631;42.152;24.756;2022-08-18T02:22:32;9.52;;;7.55;;
7179;SDS011;3631;42.152;24.756;2022-08-18T02:25:00;8.13;;;7.53;;
7179;SDS011;3631;42.152;24.756;2022-08-18T02:27:27;7.65;;;7.13;;
7179;SDS011;3631;42.152;24.756;2022-08-18T02:29:55;7.43;;;6.75;;
7179;SDS011;3631;42.152;24.756;2022-08-18T02:32:25;8.05;;;7.32;;
7179;SDS011;3631;42.152;24.756;2022-08-18T02:34:53;8.10;;;7.43;;
7179;SDS011;3631;42.152;24.756;2022-08-18T02:37:20;7.72;;;7.03;;
7179;SDS011;3631;42.152;24.756;2022-08-18T02:39:47;7.00;;;6.40;;
7179;SDS011;3631;42.152;24.756;2022-08-18T02:42:15;7.47;;;6.72;;
7179;SDS011;3631;42.152;24.756;2022-08-18T02:44:42;8.45;;;6.90;;
7179;SDS011;3631;42.152;24.756;2022-08-18T02:47:10;7.72;;;7.05;;
7179;SDS011;3631;42.152;24.756;2022-08-18T02:49:37;7.65;;;7.00;;
7179;SDS011;3631;42.152;24.756;2022-08-18T02:52:04;8.85;;;7.32;;
7179;SDS011;3631;42.152;24.756;2022-08-18T02:54:31;7.47;;;7.07;;
7179;SDS011;3631;42.152;24.756;2022-08-18T02:57:04;8.20;;;7.45;;
7179;SDS011;3631;42.152;24.756;2022-08-18T02:59:32;8.57;;;7.70;;
7179;SDS011;3631;42.152;24.756;2022-08-18T03:01:59;7.63;;;7.00;;
7179;SDS011;3631;42.152;24.756;2022-08-18T03:04:28;7.65;;;7.00;;
7179;SDS011;3631;42.152;24.756;2022-08-18T03:06:56;8.25;;;7.70;;
7179;SDS011;3631;42.152;24.756;2022-08-18T03:09:24;7.78;;;7.28;;
7179;SDS011;3631;42.152;24.756;2022-08-18T03:11:52;8.90;;;7.55;;
7179;SDS011;3631;42.152;24.756;2022-08-18T03:14:19;8.45;;;7.63;;
7179;SDS011;3631;42.152;24.756;2022-08-18T03:16:47;7.72;;;7.13;;
7179;SDS011;3631;42.152;24.756;2022-08-18T03:19:14;8.32;;;6.97;;
7179;SDS011;3631;42.152;24.756;2022-08-18T03:21:44;8.18;;;7.47;;
7179;SDS011;3631;42.152;24.756;2022-08-18T03:24:12;8.50;;;7.80;;
7179;SDS011;3631;42.152;24.756;2022-08-18T03:26:41;7.88;;;7.30;;
7179;SDS011;3631;42.152;24.756;2022-08-18T03:29:10;8.48;;;7.72;;
7179;SDS011;3631;42.152;24.756;2022-08-18T03:31:37;8.38;;;7.45;;
7179;SDS011;3631;42.152;24.756;2022-08-18T03:34:05;8.18;;;7.38;;
7179;SDS011;3631;42.152;24.756;2022-08-18T03:36:33;8.40;;;7.53;;
7179;SDS011;3631;42.152;24.756;2022-08-18T03:39:03;8.50;;;7.68;;
7179;SDS011;3631;42.152;24.756;2022-08-18T03:41:31;8.65;;;7.82;;
7179;SDS011;3631;42.152;24.756;2022-08-18T03:44:00;7.72;;;7.22;;
7179;SDS011;3631;42.152;24.756;2022-08-18T03:46:27;7.97;;;7.22;;
7179;SDS011;3631;42.152;24.756;2022-08-18T03:48:55;7.90;;;7.20;;
7179;SDS011;3631;42.152;24.756;2022-08-18T03:51:24;8.48;;;7.50;;
7179;SDS011;3631;42.152;24.756;2022-08-18T03:53:53;8.13;;;7.53;;
7179;SDS011;3631;42.152;24.756;2022-08-18T03:56:26;8.07;;;7.57;;
7179;SDS011;3631;42.152;24.756;2022-08-18T03:58:56;8.90;;;7.95;;
7179;SDS011;3631;42.152;24.756;2022-08-18T04:01:25;9.07;;;8.20;;
7179;SDS011;3631;42.152;24.756;2022-08-18T04:03:54;8.65;;;7.78;;
7179;SDS011;3631;42.152;24.756;2022-08-18T04:06:23;8.15;;;7.57;;
7179;SDS011;3631;42.152;24.756;2022-08-18T04:08:52;9.90;;;7.63;;
7179;SDS011;3631;42.152;24.756;2022-08-18T04:11:20;10.00;;;7.93;;
7179;SDS011;3631;42.152;24.756;2022-08-18T04:13:49;12.38;;;11.18;;
7179;SDS011;3631;42.152;24.756;2022-08-18T04:16:16;9.15;;;8.50;;
7179;SDS011;3631;42.152;24.756;2022-08-18T04:18:43;14.55;;;13.07;;
7179;SDS011;3631;42.152;24.756;2022-08-18T04:21:10;7.75;;;7.22;;
7179;SDS011;3631;42.152;24.756;2022-08-18T04:23:39;10.40;;;6.85;;
7179;SDS011;3631;42.152;24.756;2022-08-18T04:26:07;7.60;;;6.97;;
7179;SDS011;3631;42.152;24.756;2022-08-18T04:28:35;9.07;;;7.28;;
7179;SDS011;3631;42.152;24.756;2022-08-18T04:31:06;8.35;;;7.72;;
7179;SDS011;3631;42.152;24.756;2022-08-18T04:33:35;7.53;;;6.93;;
7179;SDS011;3631;42.152;24.756;2022-08-18T04:36:06;12.32;;;7.53;;
7179;SDS011;3631;42.152;24.756;2022-08-18T04:38:35;7.65;;;7.05;;
7179;SDS011;3631;42.152;24.756;2022-08-18T04:41:02;6.88;;;6.45;;
7179;SDS011;3631;42.152;24.756;2022-08-18T04:43:30;10.57;;;9.50;;
7179;SDS011;3631;42.152;24.756;2022-08-18T04:45:57;7.45;;;6.93;;
7179;SDS011;3631;42.152;24.756;2022-08-18T04:48:28;7.80;;;7.00;;
7179;SDS011;3631;42.152;24.756;2022-08-18T04:51:02;7.55;;;6.97;;
7179;SDS011;3631;42.152;24.756;2022-08-18T04:53:31;7.20;;;6.50;;
7179;SDS011;3631;42.152;24.756;2022-08-18T04:56:13;11.23;;;10.13;;
7179;SDS011;3631;42.152;24.756;2022-08-18T04:58:44;8.75;;;8.15;;
7179;SDS011;3631;42.152;24.756;2022-08-18T05:01:16;10.90;;;7.50;;
7179;SDS011;3631;42.152;24.756;2022-08-18T05:03:47;8.38;;;5.70;;
7179;SDS011;3631;42.152;24.756;2022-08-18T05:06:15;9.95;;;5.82;;
7179;SDS011;3631;42.152;24.756;2022-08-18T05:08:42;6.43;;;5.93;;
7179;SDS011;3631;42.152;24.756;2022-08-18T05:11:11;7.03;;;6.10;;
7179;SDS011;3631;42.152;24.756;2022-08-18T05:13:38;5.93;;;5.43;;
7179;SDS011;3631;42.152;24.756;2022-08-18T05:16:05;7.28;;;5.45;;
7179;SDS011;3631;42.152;24.756;2022-08-18T05:18:33;5.85;;;5.35;;
7179;SDS011;3631;42.152;24.756;2022-08-18T05:21:06;8.60;;;6.03;;
7179;SDS011;3631;42.152;24.756;2022-08-18T05:23:38;5.93;;;5.43;;
7179;SDS011;3631;42.152;24.756;2022-08-18T05:26:06;6.53;;;5.47;;
7179;SDS011;3631;42.152;24.756;2022-08-18T05:28:34;5.90;;;5.60;;
7179;SDS011;3631;42.152;24.756;2022-08-18T05:31:04;6.57;;;4.93;;
7179;SDS011;3631;42.152;24.756;2022-08-18T05:33:32;11.98;;;5.90;;
7179;SDS011;3631;42.152;24.756;2022-08-18T05:36:01;11.07;;;5.70;;
7179;SDS011;3631;42.152;24.756;2022-08-18T05:38:39;5.93;;;5.40;;
7179;SDS011;3631;42.152;24.756;2022-08-18T05:41:18;5.68;;;5.32;;
7179;SDS011;3631;42.152;24.756;2022-08-18T05:43:50;6.32;;;5.53;;
7179;SDS011;3631;42.152;24.756;2022-08-18T05:46:17;6.93;;;5.30;;
7179;SDS011;3631;42.152;24.756;2022-08-18T05:48:48;5.70;;;5.15;;
7179;SDS011;3631;42.152;24.756;2022-08-18T05:51:16;7.50;;;5.82;;
7179;SDS011;3631;42.152;24.756;2022-08-18T05:53:51;6.15;;;5.70;;
7179;SDS011;3631;42.152;24.756;2022-08-18T05:56:36;6.55;;;5.30;;
7179;SDS011;3631;42.152;24.756;2022-08-18T05:59:22;8.25;;;5.70;;
7179;SDS011;3631;42.152;24.756;2022-08-18T06:01:56;7.13;;;5.47;;
7179;SDS011;3631;42.152;24.756;2022-08-18T06:04:32;5.95;;;5.57;;
7179;SDS011;3631;42.152;24.756;2022-08-18T06:07:07;5.78;;;5.22;;
7179;SDS011;3631;42.152;24.756;2022-08-18T06:09:40;6.30;;;5.78;;
7179;SDS011;3631;42.152;24.756;2022-08-18T06:12:16;6.00;;;5.55;;
7179;SDS011;3631;42.152;24.756;2022-08-18T06:14:49;7.55;;;6.82;;
7179;SDS011;3631;42.152;24.756;2022-08-18T06:20:12;10.35;;;5.72;;
7179;SDS011;3631;42.152;24.756;2022-08-18T06:22:49;7.95;;;6.07;;
7179;SDS011;3631;42.152;24.756;2022-08-18T06:25:24;9.77;;;6.88;;
7179;SDS011;3631;42.152;24.756;2022-08-18T06:28:00;7.68;;;6.38;;
7179;SDS011;3631;42.152;24.756;2022-08-18T06:30:39;7.00;;;6.45;;
7179;SDS011;3631;42.152;24.756;2022-08-18T06:33:16;7.63;;;6.88;;
7179;SDS011;3631;42.152;24.756;2022-08-18T06:35:57;7.43;;;6.70;;
7179;SDS011;3631;42.152;24.756;2022-08-18T06:38:46;6.85;;;6.28;;
7179;SDS011;3631;42.152;24.756;2022-08-18T06:41:32;7.05;;;6.45;;
7179;SDS011;3631;42.152;24.756;2022-08-18T06:44:02;6.47;;;5.97;;
7179;SDS011;3631;42.152;24.756;2022-08-18T06:46:34;6.82;;;6.00;;
7179;SDS011;3631;42.152;24.756;2022-08-18T06:49:07;10.20;;;6.35;;
7179;SDS011;3631;42.152;24.756;2022-08-18T06:51:35;6.50;;;5.80;;
7179;SDS011;3631;42.152;24.756;2022-08-18T06:54:04;5.78;;;5.38;;
7179;SDS011;3631;42.152;24.756;2022-08-18T06:56:35;9.30;;;6.13;;
7179;SDS011;3631;42.152;24.756;2022-08-18T06:59:13;6.30;;;5.88;;
7179;SDS011;3631;42.152;24.756;2022-08-18T07:01:43;11.32;;;5.80;;
7179;SDS011;3631;42.152;24.756;2022-08-18T07:07:12;9.45;;;5.55;;
7179;SDS011;3631;42.152;24.756;2022-08-18T07:09:56;11.45;;;6.32;;
7179;SDS011;3631;42.152;24.756;2022-08-18T07:12:25;6.03;;;5.53;;
7179;SDS011;3631;42.152;24.756;2022-08-18T07:14:55;10.32;;;6.00;;
7179;SDS011;3631;42.152;24.756;2022-08-18T07:17:25;8.45;;;5.30;;
7179;SDS011;3631;42.152;24.756;2022-08-18T07:19:57;7.53;;;5.47;;
7179;SDS011;3631;42.152;24.756;2022-08-18T07:22:36;10.63;;;6.00;;
7179;SDS011;3631;42.152;24.756;2022-08-18T07:25:19;7.32;;;6.40;;
7179;SDS011;3631;42.152;24.756;2022-08-18T07:27:51;12.82;;;6.05;;
7179;SDS011;3631;42.152;24.756;2022-08-18T07:30:25;6.95;;;5.90;;
7179;SDS011;3631;42.152;24.756;2022-08-18T07:32:56;9.65;;;5.72;;
7179;SDS011;3631;42.152;24.756;2022-08-18T07:35:27;6.80;;;5.90;;
7179;SDS011;3631;42.152;24.756;2022-08-18T07:38:00;6.85;;;6.00;;
7179;SDS011;3631;42.152;24.756;2022-08-18T07:40:32;6.15;;;5.55;;
7179;SDS011;3631;42.152;24.756;2022-08-18T07:43:05;7.07;;;6.40;;
7179;SDS011;3631;42.152;24.756;2022-08-18T07:45:40;8.73;;;5.95;;
7179;SDS011;3631;42.152;24.756;2022-08-18T07:48:09;5.50;;;4.90;;
7179;SDS011;3631;42.152;24.756;2022-08-18T07:50:39;6.07;;;5.47;;
7179;SDS011;3631;42.152;24.756;2022-08-18T07:53:12;8.35;;;7.50;;
7179;SDS011;3631;42.152;24.756;2022-08-18T07:55:45;5.65;;;5.15;;
7179;SDS011;3631;42.152;24.756;2022-08-18T07:58:21;5.90;;;5.50;;
7179;SDS011;3631;42.152;24.756;2022-08-18T08:00:56;9.70;;;8.80;;
7179;SDS011;3631;42.152;24.756;2022-08-18T08:03:30;7.15;;;6.55;;
7179;SDS011;3631;42.152;24.756;2022-08-18T08:06:11;10.20;;;8.27;;
7179;SDS011;3631;42.152;24.756;2022-08-18T08:08:47;6.68;;;5.55;;
7179;SDS011;3631;42.152;24.756;2022-08-18T08:11:24;7.47;;;6.05;;
7179;SDS011;3631;42.152;24.756;2022-08-18T08:14:07;5.32;;;4.78;;
7179;SDS011;3631;42.152;24.756;2022-08-18T08:16:45;7.68;;;7.07;;
7179;SDS011;3631;42.152;24.756;2022-08-18T08:19:20;8.02;;;7.32;;
7179;SDS011;3631;42.152;24.756;2022-08-18T08:22:15;5.72;;;5.22;;
7179;SDS011;3631;42.152;24.756;2022-08-18T08:24:48;8.80;;;5.57;;
7179;SDS011;3631;42.152;24.756;2022-08-18T08:27:26;5.78;;;5.18;;
7179;SDS011;3631;42.152;24.756;2022-08-18T08:30:04;5.47;;;4.90;;
7179;SDS011;3631;42.152;24.756;2022-08-18T08:32:35;5.00;;;4.55;;
7179;SDS011;3631;42.152;24.756;2022-08-18T08:35:10;5.63;;;5.22;;
7179;SDS011;3631;42.152;24.756;2022-08-18T08:37:40;4.85;;;4.45;;
7179;SDS011;3631;42.152;24.756;2022-08-18T08:40:12;4.78;;;4.38;;
7179;SDS011;3631;42.152;24.756;2022-08-18T08:42:44;4.95;;;4.65;;
7179;SDS011;3631;42.152;24.756;2022-08-18T08:45:19;4.95;;;4.65;;
7179;SDS011;3631;42.152;24.756;2022-08-18T08:47:51;5.80;;;5.35;;
7179;SDS011;3631;42.152;24.756;2022-08-18T08:50:25;6.05;;;5.47;;
7179;SDS011;3631;42.152;24.756;2022-08-18T08:52:56;5.60;;;5.00;;
7179;SDS011;3631;42.152;24.756;2022-08-18T08:55:28;5.65;;;5.15;;
7179;SDS011;3631;42.152;24.756;2022-08-18T08:58:00;5.50;;;4.75;;
7179;SDS011;3631;42.152;24.756;2022-08-18T09:00:45;5.90;;;5.38;;
7179;SDS011;3631;42.152;24.756;2022-08-18T09:03:26;8.15;;;7.55;;
7179;SDS011;3631;42.152;24.756;2022-08-18T09:06:05;6.68;;;5.50;;
7179;SDS011;3631;42.152;24.756;2022-08-18T09:08:54;5.35;;;4.85;;
7179;SDS011;3631;42.152;24.756;2022-08-18T09:17:34;5.32;;;4.93;;
7179;SDS011;3631;42.152;24.756;2022-08-18T09:20:29;5.22;;;4.93;;
7179;SDS011;3631;42.152;24.756;2022-08-18T09:23:12;11.25;;;5.45;;
7179;SDS011;3631;42.152;24.756;2022-08-18T09:25:45;6.05;;;4.90;;
7179;SDS011;3631;42.152;24.756;2022-08-18T09:28:17;5.80;;;5.30;;
7179;SDS011;3631;42.152;24.756;2022-08-18T09:30:52;5.72;;;5.03;;
7179;SDS011;3631;42.152;24.756;2022-08-18T09:36:46;7.78;;;5.82;;
7179;SDS011;3631;42.152;24.756;2022-08-18T09:39:25;10.48;;;5.63;;
7179;SDS011;3631;42.152;24.756;2022-08-18T09:42:15;9.30;;;8.55;;
7179;SDS011;3631;42.152;24.756;2022-08-18T09:44:56;8.55;;;7.85;;
7179;SDS011;3631;42.152;24.756;2022-08-18T09:50:50;6.32;;;6.00;;
7179;SDS011;3631;42.152;24.756;2022-08-18T09:59:57;6.70;;;6.13;;
7179;SDS011;3631;42.152;24.756;2022-08-18T10:06:00;6.10;;;5.60;;
7179;SDS011;3631;42.152;24.756;2022-08-18T10:08:39;5.78;;;5.38;;
7179;SDS011;3631;42.152;24.756;2022-08-18T10:11:35;5.35;;;4.80;;
7179;SDS011;3631;42.152;24.756;2022-08-18T10:14:23;4.72;;;4.43;;
7179;SDS011;3631;42.152;24.756;2022-08-18T10:17:01;5.20;;;4.82;;
7179;SDS011;3631;42.152;24.756;2022-08-18T10:19:42;5.30;;;5.00;;
7179;SDS011;3631;42.152;24.756;2022-08-18T10:22:34;5.75;;;5.10;;
7179;SDS011;3631;42.152;24.756;2022-08-18T10:25:04;5.22;;;4.93;;
7179;SDS011;3631;42.152;24.756;2022-08-18T10:27:46;5.70;;;5.40;;
7179;SDS011;3631;42.152;24.756;2022-08-18T10:36:38;6.03;;;5.45;;
7179;SDS011;3631;42.152;24.756;2022-08-18T10:39:10;5.63;;;5.22;;
7179;SDS011;3631;42.152;24.756;2022-08-18T10:44:25;9.43;;;5.80;;
7179;SDS011;3631;42.152;24.756;2022-08-18T10:46:53;8.88;;;5.78;;
7179;SDS011;3631;42.152;24.756;2022-08-18T10:49:24;6.63;;;5.63;;
7179;SDS011;3631;42.152;24.756;2022-08-18T10:55:14;8.38;;;5.80;;
7179;SDS011;3631;42.152;24.756;2022-08-18T11:01:01;8.82;;;5.50;;
7179;SDS011;3631;42.152;24.756;2022-08-18T11:03:40;6.07;;;5.65;;
7179;SDS011;3631;42.152;24.756;2022-08-18T11:06:25;5.70;;;5.38;;
7179;SDS011;3631;42.152;24.756;2022-08-18T11:08:54;6.72;;;5.93;;
7179;SDS011;3631;42.152;24.756;2022-08-18T11:11:24;6.43;;;5.78;;
7179;SDS011;3631;42.152;24.756;2022-08-18T11:13:56;5.93;;;5.47;;
7179;SDS011;3631;42.152;24.756;2022-08-18T11:16:35;5.00;;;4.72;;
7179;SDS011;3631;42.152;24.756;2022-08-18T11:19:11;6.40;;;5.82;;
7179;SDS011;3631;42.152;24.756;2022-08-18T11:21:41;6.22;;;5.72;;
7179;SDS011;3631;42.152;24.756;2022-08-18T11:24:11;6.43;;;5.80;;
7179;SDS011;3631;42.152;24.756;2022-08-18T11:26:42;6.30;;;5.75;;
7179;SDS011;3631;42.152;24.756;2022-08-18T11:29:17;7.82;;;6.05;;
7179;SDS011;3631;42.152;24.756;2022-08-18T11:31:47;6.05;;;5.75;;
7179;SDS011;3631;42.152;24.756;2022-08-18T11:34:16;12.70;;;6.60;;
7179;SDS011;3631;42.152;24.756;2022-08-18T11:36:53;6.40;;;5.90;;
7179;SDS011;3631;42.152;24.756;2022-08-18T11:39:21;6.68;;;6.07;;
7179;SDS011;3631;42.152;24.756;2022-08-18T11:41:49;8.10;;;6.32;;
7179;SDS011;3631;42.152;24.756;2022-08-18T11:44:16;8.80;;;6.35;;
7179;SDS011;3631;42.152;24.756;2022-08-18T11:46:47;6.75;;;6.25;;
7179;SDS011;3631;42.152;24.756;2022-08-18T11:49:15;6.68;;;6.18;;
7179;SDS011;3631;42.152;24.756;2022-08-18T11:51:54;6.47;;;5.97;;
7179;SDS011;3631;42.152;24.756;2022-08-18T11:54:22;6.43;;;6.00;;
7179;SDS011;3631;42.152;24.756;2022-08-18T12:03:08;6.63;;;5.97;;
7179;SDS011;3631;42.152;24.756;2022-08-18T12:05:44;5.82;;;5.53;;
7179;SDS011;3631;42.152;24.756;2022-08-18T12:08:22;6.90;;;6.22;;
7179;SDS011;3631;42.152;24.756;2022-08-18T12:11:05;6.40;;;5.95;;
7179;SDS011;3631;42.152;24.756;2022-08-18T12:13:41;6.20;;;5.75;;
7179;SDS011;3631;42.152;24.756;2022-08-18T12:16:12;7.40;;;6.75;;
7179;SDS011;3631;42.152;24.756;2022-08-18T12:18:43;6.93;;;5.97;;
7179;SDS011;3631;42.152;24.756;2022-08-18T12:21:10;9.32;;;8.63;;
7179;SDS011;3631;42.152;24.756;2022-08-18T12:23:38;7.40;;;6.80;;
7179;SDS011;3631;42.152;24.756;2022-08-18T12:26:07;7.35;;;6.70;;
7179;SDS011;3631;42.152;24.756;2022-08-18T12:28:34;6.45;;;5.82;;
7179;SDS011;3631;42.152;24.756;2022-08-18T12:31:01;9.52;;;6.53;;
7179;SDS011;3631;42.152;24.756;2022-08-18T12:33:28;6.68;;;6.18;;
7179;SDS011;3631;42.152;24.756;2022-08-18T12:35:57;6.18;;;5.68;;
7179;SDS011;3631;42.152;24.756;2022-08-18T12:38:24;5.85;;;5.45;;
7179;SDS011;3631;42.152;24.756;2022-08-18T12:40:51;5.65;;;5.28;;
7179;SDS011;3631;42.152;24.756;2022-08-18T12:43:18;6.25;;;5.65;;
7179;SDS011;3631;42.152;24.756;2022-08-18T12:45:45;6.93;;;6.30;;
7179;SDS011;3631;42.152;24.756;2022-08-18T12:48:12;6.28;;;5.80;;
7179;SDS011;3631;42.152;24.756;2022-08-18T12:50:40;6.38;;;5.97;;
7179;SDS011;3631;42.152;24.756;2022-08-18T12:53:09;5.82;;;5.43;;
7179;SDS011;3631;42.152;24.756;2022-08-18T12:55:39;6.78;;;6.28;;
7179;SDS011;3631;42.152;24.756;2022-08-18T12:58:07;6.75;;;6.32;;
7179;SDS011;3631;42.152;24.756;2022-08-18T13:00:34;6.63;;;6.10;;
7179;SDS011;3631;42.152;24.756;2022-08-18T13:03:01;6.00;;;5.65;;
7179;SDS011;3631;42.152;24.756;2022-08-18T13:05:28;6.88;;;6.25;;
7179;SDS011;3631;42.152;24.756;2022-08-18T13:07:56;6.60;;;6.10;;
7179;SDS011;3631;42.152;24.756;2022-08-18T13:10:27;6.30;;;5.90;;
7179;SDS011;3631;42.152;24.756;2022-08-18T13:12:54;6.88;;;6.30;;
7179;SDS011;3631;42.152;24.756;2022-08-18T13:15:21;6.30;;;5.70;;
7179;SDS011;3631;42.152;24.756;2022-08-18T13:17:48;6.47;;;5.97;;
7179;SDS011;3631;42.152;24.756;2022-08-18T13:20:16;6.22;;;5.82;;
7179;SDS011;3631;42.152;24.756;2022-08-18T13:22:43;6.00;;;5.53;;
7179;SDS011;3631;42.152;24.756;2022-08-18T13:25:11;6.70;;;5.32;;
7179;SDS011;3631;42.152;24.756;2022-08-18T13:27:42;6.00;;;5.47;;
7179;SDS011;3631;42.152;24.756;2022-08-18T13:30:11;6.80;;;5.70;;
7179;SDS011;3631;42.152;24.756;2022-08-18T13:32:40;6.03;;;5.60;;
7179;SDS011;3631;42.152;24.756;2022-08-18T13:35:08;6.70;;;6.20;;
7179;SDS011;3631;42.152;24.756;2022-08-18T13:37:37;5.78;;;5.45;;
7179;SDS011;3631;42.152;24.756;2022-08-18T13:40:05;6.35;;;5.80;;
7179;SDS011;3631;42.152;24.756;2022-08-18T13:42:40;6.63;;;6.00;;
7179;SDS011;3631;42.152;24.756;2022-08-18T13:45:13;6.20;;;5.43;;
7179;SDS011;3631;42.152;24.756;2022-08-18T13:47:42;5.45;;;5.13;;
7179;SDS011;3631;42.152;24.756;2022-08-18T13:50:10;5.43;;;5.13;;
7179;SDS011;3631;42.152;24.756;2022-08-18T13:52:38;5.95;;;5.45;;
7179;SDS011;3631;42.152;24.756;2022-08-18T13:55:08;6.78;;;6.00;;
7179;SDS011;3631;42.152;24.756;2022-08-18T13:57:38;7.43;;;6.65;;
7179;SDS011;3631;42.152;24.756;2022-08-18T14:00:08;6.28;;;5.93;;
7179;SDS011;3631;42.152;24.756;2022-08-18T14:02:38;6.70;;;6.07;;
7179;SDS011;3631;42.152;24.756;2022-08-18T14:05:06;6.95;;;6.22;;
7179;SDS011;3631;42.152;24.756;2022-08-18T14:07:34;6.68;;;6.28;;
7179;SDS011;3631;42.152;24.756;2022-08-18T14:10:01;6.00;;;5.60;;
7179;SDS011;3631;42.152;24.756;2022-08-18T14:12:31;6.80;;;6.20;;
7179;SDS011;3631;42.152;24.756;2022-08-18T14:14:59;6.70;;;5.50;;
7179;SDS011;3631;42.152;24.756;2022-08-18T14:17:27;7.05;;;6.10;;
7179;SDS011;3631;42.152;24.756;2022-08-18T14:19:54;8.60;;;6.80;;
7179;SDS011;3631;42.152;24.756;2022-08-18T14:22:38;6.07;;;5.72;;
7179;SDS011;3631;42.152;24.756;2022-08-18T14:25:23;6.20;;;5.90;;
7179;SDS011;3631;42.152;24.756;2022-08-18T14:28:07;6.38;;;5.88;;
7179;SDS011;3631;42.152;24.756;2022-08-18T14:30:34;7.30;;;6.55;;
7179;SDS011;3631;42.152;24.756;2022-08-18T14:33:05;6.80;;;6.40;;
7179;SDS011;3631;42.152;24.756;2022-08-18T14:35:34;7.38;;;6.78;;
7179;SDS011;3631;42.152;24.756;2022-08-18T14:38:02;7.53;;;6.82;;
7179;SDS011;3631;42.152;24.756;2022-08-18T14:40:31;6.90;;;6.35;;
7179;SDS011;3631;42.152;24.756;2022-08-18T14:42:58;7.28;;;6.72;;
7179;SDS011;3631;42.152;24.756;2022-08-18T14:45:26;8.35;;;6.55;;
7179;SDS011;3631;42.152;24.756;2022-08-18T14:47:54;7.45;;;6.65;;
7179;SDS011;3631;42.152;24.756;2022-08-18T14:50:22;7.05;;;6.50;;
7179;SDS011;3631;42.152;24.756;2022-08-18T14:52:50;6.88;;;6.47;;
7179;SDS011;3631;42.152;24.756;2022-08-18T14:55:17;7.70;;;6.95;;
7179;SDS011;3631;42.152;24.756;2022-08-18T14:57:44;7.75;;;6.38;;
7179;SDS011;3631;42.152;24.756;2022-08-18T15:00:12;7.75;;;7.00;;
7179;SDS011;3631;42.152;24.756;2022-08-18T15:02:42;7.50;;;6.88;;
7179;SDS011;3631;42.152;24.756;2022-08-18T15:05:09;7.18;;;6.55;;
7179;SDS011;3631;42.152;24.756;2022-08-18T15:07:38;7.03;;;6.50;;
7179;SDS011;3631;42.152;24.756;2022-08-18T15:10:06;7.10;;;6.50;;
7179;SDS011;3631;42.152;24.756;2022-08-18T15:12:35;6.82;;;6.32;;
7179;SDS011;3631;42.152;24.756;2022-08-18T15:15:02;6.70;;;6.18;;
7179;SDS011;3631;42.152;24.756;2022-08-18T15:17:30;7.80;;;7.10;;
7179;SDS011;3631;42.152;24.756;2022-08-18T15:19:57;7.40;;;6.78;;
7179;SDS011;3631;42.152;24.756;2022-08-18T15:22:24;7.43;;;6.90;;
7179;SDS011;3631;42.152;24.756;2022-08-18T15:25:10;6.82;;;6.35;;
7179;SDS011;3631;42.152;24.756;2022-08-18T15:27:54;6.60;;;6.20;;
7179;SDS011;3631;42.152;24.756;2022-08-18T15:30:21;7.15;;;6.53;;
7179;SDS011;3631;42.152;24.756;2022-08-18T15:32:50;6.78;;;6.30;;
7179;SDS011;3631;42.152;24.756;2022-08-18T15:35:18;7.60;;;7.03;;
7179;SDS011;3631;42.152;24.756;2022-08-18T15:37:45;7.43;;;6.70;;
7179;SDS011;3631;42.152;24.756;2022-08-18T15:40:16;6.88;;;6.38;;
7179;SDS011;3631;42.152;24.756;2022-08-18T15:42:45;7.28;;;6.80;;
7179;SDS011;3631;42.152;24.756;2022-08-18T15:45:15;8.40;;;7.22;;
7179;SDS011;3631;42.152;24.756;2022-08-18T15:47:43;7.93;;;6.53;;
7179;SDS011;3631;42.152;24.756;2022-08-18T15:50:12;6.95;;;6.45;;
7179;SDS011;3631;42.152;24.756;2022-08-18T15:52:46;7.60;;;7.00;;
7179;SDS011;3631;42.152;24.756;2022-08-18T15:55:16;7.90;;;7.07;;
7179;SDS011;3631;42.152;24.756;2022-08-18T15:57:43;7.55;;;6.95;;
7179;SDS011;3631;42.152;24.756;2022-08-18T16:00:13;8.82;;;7.55;;
7179;SDS011;3631;42.152;24.756;2022-08-18T16:02:46;6.95;;;6.57;;
7179;SDS011;3631;42.152;24.756;2022-08-18T16:05:15;8.35;;;7.75;;
7179;SDS011;3631;42.152;24.756;2022-08-18T16:07:42;7.90;;;7.30;;
7179;SDS011;3631;42.152;24.756;2022-08-18T16:10:10;8.10;;;7.30;;
7179;SDS011;3631;42.152;24.756;2022-08-18T16:12:39;7.78;;;7.20;;
7179;SDS011;3631;42.152;24.756;2022-08-18T16:15:06;7.90;;;7.30;;